sensor_id;sensor_type;location;lat;lon;timestamp;pressure;altitude;pressure_sealevel;temperature
19282;BMP180;9774;52.034;5.342;2023-04-21T00:00:06;101452.00;;;15.10
19282;BMP180;9774;52.034;5.342;2023-04-21T00:02:35;101449.00;;;15.10
19282;BMP180;9774;52.034;5.342;2023-04-21T00:05:05;101437.00;;;15.10
19282;BMP180;9774;52.034;5.342;2023-04-21T00:07:34;101434.00;;;15.10
19282;BMP180;9774;52.034;5.342;2023-04-21T00:10:04;101427.00;;;15.10
19282;BMP180;9774;52.034;5.342;2023-04-21T00:12:32;101422.00;;;15.10
19282;BMP180;9774;52.034;5.342;2023-04-21T00:14:59;101414.00;;;15.10
19282;BMP180;9774;52.034;5.342;2023-04-21T00:17:27;101411.00;;;15.10
19282;BMP180;9774;52.034;5.342;2023-04-21T00:19:54;101420.00;;;15.10
19282;BMP180;9774;52.034;5.342;2023-04-21T00:22:21;101411.00;;;15.10
19282;BMP180;9774;52.034;5.342;2023-04-21T00:24:49;101407.00;;;15.10
19282;BMP180;9774;52.034;5.342;2023-04-21T00:27:17;101399.00;;;15.10
19282;BMP180;9774;52.034;5.342;2023-04-21T00:29:45;101405.00;;;15.10
19282;BMP180;9774;52.034;5.342;2023-04-21T00:32:12;101397.00;;;15.10
19282;BMP180;9774;52.034;5.342;2023-04-21T00:34:39;101386.00;;;15.10
19282;BMP180;9774;52.034;5.342;2023-04-21T00:37:06;101388.00;;;15.10
19282;BMP180;9774;52.034;5.342;2023-04-21T00:39:34;101387.00;;;15.10
19282;BMP180;9774;52.034;5.342;2023-04-21T00:42:01;101392.00;;;15.10
19282;BMP180;9774;52.034;5.342;2023-04-21T00:44:30;101390.00;;;15.00
19282;BMP180;9774;52.034;5.342;2023-04-21T00:46:57;101382.00;;;15.10
19282;BMP180;9774;52.034;5.342;2023-04-21T00:49:25;101382.00;;;15.00
19282;BMP180;9774;52.034;5.342;2023-04-21T00:51:53;101358.00;;;15.00
19282;BMP180;9774;52.034;5.342;2023-04-21T00:54:20;101364.00;;;15.00
19282;BMP180;9774;52.034;5.342;2023-04-21T00:56:50;101375.00;;;15.00
19282;BMP180;9774;52.034;5.342;2023-04-21T00:59:17;101377.00;;;15.00
19282;BMP180;9774;52.034;5.342;2023-04-21T01:01:45;101369.00;;;14.90
19282;BMP180;9774;52.034;5.342;2023-04-21T01:04:13;101359.00;;;14.90
19282;BMP180;9774;52.034;5.342;2023-04-21T01:06:41;101365.00;;;14.90
19282;BMP180;9774;52.034;5.342;2023-04-21T01:09:08;101359.00;;;14.90
19282;BMP180;9774;52.034;5.342;2023-04-21T01:11:37;101358.00;;;14.90
19282;BMP180;9774;52.034;5.342;2023-04-21T01:14:04;101352.00;;;14.90
19282;BMP180;9774;52.034;5.342;2023-04-21T01:16:32;101358.00;;;14.90
19282;BMP180;9774;52.034;5.342;2023-04-21T01:19:01;101351.00;;;14.90
19282;BMP180;9774;52.034;5.342;2023-04-21T01:21:37;101347.00;;;14.80
19282;BMP180;9774;52.034;5.342;2023-04-21T01:24:06;101351.00;;;14.90
19282;BMP180;9774;52.034;5.342;2023-04-21T01:26:33;101343.00;;;14.80
19282;BMP180;9774;52.034;5.342;2023-04-21T01:29:01;101347.00;;;14.80
19282;BMP180;9774;52.034;5.342;2023-04-21T01:31:28;101345.00;;;14.80
19282;BMP180;9774;52.034;5.342;2023-04-21T01:33:55;101332.00;;;14.80
19282;BMP180;9774;52.034;5.342;2023-04-21T01:36:23;101345.00;;;14.80
19282;BMP180;9774;52.034;5.342;2023-04-21T01:38:51;101336.00;;;14.80
19282;BMP180;9774;52.034;5.342;2023-04-21T01:41:18;101330.00;;;14.90
19282;BMP180;9774;52.034;5.342;2023-04-21T01:43:46;101331.00;;;14.80
19282;BMP180;9774;52.034;5.342;2023-04-21T01:46:13;101325.00;;;14.80
19282;BMP180;9774;52.034;5.342;2023-04-21T01:48:40;101323.00;;;14.80
19282;BMP180;9774;52.034;5.342;2023-04-21T01:51:08;101320.00;;;14.90
19282;BMP180;9774;52.034;5.342;2023-04-21T01:53:35;101320.00;;;14.90
19282;BMP180;9774;52.034;5.342;2023-04-21T01:56:04;101315.00;;;14.90
19282;BMP180;9774;52.034;5.342;2023-04-21T01:58:31;101317.00;;;14.90
19282;BMP180;9774;52.034;5.342;2023-04-21T02:00:59;101322.00;;;14.90
19282;BMP180;9774;52.034;5.342;2023-04-21T02:03:26;101327.00;;;14.90
19282;BMP180;9774;52.034;5.342;2023-04-21T02:05:53;101328.00;;;14.90
19282;BMP180;9774;52.034;5.342;2023-04-21T02:08:21;101319.00;;;14.90
19282;BMP180;9774;52.034;5.342;2023-04-21T02:10:48;101320.00;;;14.90
19282;BMP180;9774;52.034;5.342;2023-04-21T02:13:17;101326.00;;;14.90
19282;BMP180;9774;52.034;5.342;2023-04-21T02:15:44;101326.00;;;14.90
19282;BMP180;9774;52.034;5.342;2023-04-21T02:18:11;101323.00;;;14.90
19282;BMP180;9774;52.034;5.342;2023-04-21T02:20:39;101318.00;;;14.90
19282;BMP180;9774;52.034;5.342;2023-04-21T02:23:07;101313.00;;;14.90
19282;BMP180;9774;52.034;5.342;2023-04-21T02:25:34;101310.00;;;15.00
19282;BMP180;9774;52.034;5.342;2023-04-21T02:28:01;101299.00;;;14.90
19282;BMP180;9774;52.034;5.342;2023-04-21T02:30:30;101305.00;;;14.90
19282;BMP180;9774;52.034;5.342;2023-04-21T02:32:57;101310.00;;;14.90
19282;BMP180;9774;52.034;5.342;2023-04-21T02:35:25;101304.00;;;14.90
19282;BMP180;9774;52.034;5.342;2023-04-21T02:37:52;101299.00;;;14.90
19282;BMP180;9774;52.034;5.342;2023-04-21T02:40:19;101311.00;;;14.90
19282;BMP180;9774;52.034;5.342;2023-04-21T02:42:47;101305.00;;;15.00
19282;BMP180;9774;52.034;5.342;2023-04-21T02:45:14;101300.00;;;15.00
19282;BMP180;9774;52.034;5.342;2023-04-21T02:47:43;101297.00;;;15.00
19282;BMP180;9774;52.034;5.342;2023-04-21T02:50:13;101286.00;;;14.90
19282;BMP180;9774;52.034;5.342;2023-04-21T02:52:40;101298.00;;;15.00
19282;BMP180;9774;52.034;5.342;2023-04-21T02:55:08;101286.00;;;15.00
19282;BMP180;9774;52.034;5.342;2023-04-21T02:57:35;101285.00;;;15.00
19282;BMP180;9774;52.034;5.342;2023-04-21T03:00:03;101288.00;;;14.90
19282;BMP180;9774;52.034;5.342;2023-04-21T03:02:32;101278.00;;;15.00
19282;BMP180;9774;52.034;5.342;2023-04-21T03:05:02;101285.00;;;14.90
19282;BMP180;9774;52.034;5.342;2023-04-21T03:07:29;101296.00;;;14.90
19282;BMP180;9774;52.034;5.342;2023-04-21T03:09:56;101299.00;;;14.90
19282;BMP180;9774;52.034;5.342;2023-04-21T03:12:23;101293.00;;;14.90
19282;BMP180;9774;52.034;5.342;2023-04-21T03:14:51;101288.00;;;14.90
19282;BMP180;9774;52.034;5.342;2023-04-21T03:17:18;101300.00;;;14.90
19282;BMP180;9774;52.034;5.342;2023-04-21T03:19:46;101285.00;;;14.90
19282;BMP180;9774;52.034;5.342;2023-04-21T03:22:14;101283.00;;;14.90
19282;BMP180;9774;52.034;5.342;2023-04-21T03:24:42;101281.00;;;14.90
19282;BMP180;9774;52.034;5.342;2023-04-21T03:27:09;101276.00;;;14.90
19282;BMP180;9774;52.034;5.342;2023-04-21T03:29:36;101273.00;;;14.90
19282;BMP180;9774;52.034;5.342;2023-04-21T03:32:03;101273.00;;;14.90
19282;BMP180;9774;52.034;5.342;2023-04-21T03:34:31;101280.00;;;14.90
19282;BMP180;9774;52.034;5.342;2023-04-21T03:36:58;101267.00;;;14.90
19282;BMP180;9774;52.034;5.342;2023-04-21T03:39:27;101259.00;;;14.90
19282;BMP180;9774;52.034;5.342;2023-04-21T03:41:54;101263.00;;;14.90
19282;BMP180;9774;52.034;5.342;2023-04-21T03:44:23;101261.00;;;14.90
19282;BMP180;9774;52.034;5.342;2023-04-21T03:46:52;101249.00;;;14.90
19282;BMP180;9774;52.034;5.342;2023-04-21T03:49:19;101248.00;;;14.90
19282;BMP180;9774;52.034;5.342;2023-04-21T03:51:46;101245.00;;;14.90
19282;BMP180;9774;52.034;5.342;2023-04-21T03:54:14;101256.00;;;14.90
19282;BMP180;9774;52.034;5.342;2023-04-21T03:56:42;101244.00;;;14.90
19282;BMP180;9774;52.034;5.342;2023-04-21T03:59:10;101244.00;;;14.90
19282;BMP180;9774;52.034;5.342;2023-04-21T04:01:37;101259.00;;;15.00
19282;BMP180;9774;52.034;5.342;2023-04-21T04:04:04;101251.00;;;14.90
19282;BMP180;9774;52.034;5.342;2023-04-21T04:06:32;101250.00;;;14.90
19282;BMP180;9774;52.034;5.342;2023-04-21T04:09:00;101251.00;;;14.90
19282;BMP180;9774;52.034;5.342;2023-04-21T04:11:29;101248.00;;;14.90
19282;BMP180;9774;52.034;5.342;2023-04-21T04:13:58;101233.00;;;14.80
19282;BMP180;9774;52.034;5.342;2023-04-21T04:16:25;101246.00;;;14.90
19282;BMP180;9774;52.034;5.342;2023-04-21T04:18:53;101244.00;;;14.80
19282;BMP180;9774;52.034;5.342;2023-04-21T04:21:21;101237.00;;;14.80
19282;BMP180;9774;52.034;5.342;2023-04-21T04:23:49;101235.00;;;14.80
19282;BMP180;9774;52.034;5.342;2023-04-21T04:26:18;101238.00;;;14.80
19282;BMP180;9774;52.034;5.342;2023-04-21T04:28:47;101230.00;;;14.80
19282;BMP180;9774;52.034;5.342;2023-04-21T04:31:16;101230.00;;;14.80
19282;BMP180;9774;52.034;5.342;2023-04-21T04:33:43;101233.00;;;14.80
19282;BMP180;9774;52.034;5.342;2023-04-21T04:36:10;101238.00;;;14.80
19282;BMP180;9774;52.034;5.342;2023-04-21T04:38:38;101241.00;;;14.80
19282;BMP180;9774;52.034;5.342;2023-04-21T04:41:06;101255.00;;;14.80
19282;BMP180;9774;52.034;5.342;2023-04-21T04:43:34;101239.00;;;14.80
19282;BMP180;9774;52.034;5.342;2023-04-21T04:46:04;101234.00;;;14.80
19282;BMP180;9774;52.034;5.342;2023-04-21T04:48:35;101240.00;;;14.80
19282;BMP180;9774;52.034;5.342;2023-04-21T04:51:02;101241.00;;;14.80
19282;BMP180;9774;52.034;5.342;2023-04-21T04:53:30;101233.00;;;14.80
19282;BMP180;9774;52.034;5.342;2023-04-21T04:55:58;101238.00;;;14.80
19282;BMP180;9774;52.034;5.342;2023-04-21T04:58:25;101244.00;;;14.80
19282;BMP180;9774;52.034;5.342;2023-04-21T05:00:52;101239.00;;;14.80
19282;BMP180;9774;52.034;5.342;2023-04-21T05:03:20;101238.00;;;14.80
19282;BMP180;9774;52.034;5.342;2023-04-21T05:05:48;101246.00;;;14.80
19282;BMP180;9774;52.034;5.342;2023-04-21T05:08:15;101249.00;;;14.80
19282;BMP180;9774;52.034;5.342;2023-04-21T05:10:43;101250.00;;;14.80
19282;BMP180;9774;52.034;5.342;2023-04-21T05:13:10;101252.00;;;14.80
19282;BMP180;9774;52.034;5.342;2023-04-21T05:15:37;101243.00;;;14.80
19282;BMP180;9774;52.034;5.342;2023-04-21T05:18:05;101247.00;;;14.80
19282;BMP180;9774;52.034;5.342;2023-04-21T05:20:32;101255.00;;;14.80
19282;BMP180;9774;52.034;5.342;2023-04-21T05:23:01;101247.00;;;14.80
19282;BMP180;9774;52.034;5.342;2023-04-21T05:25:28;101250.00;;;14.80
19282;BMP180;9774;52.034;5.342;2023-04-21T05:27:56;101258.00;;;14.80
19282;BMP180;9774;52.034;5.342;2023-04-21T05:30:23;101256.00;;;14.80
19282;BMP180;9774;52.034;5.342;2023-04-21T05:32:50;101262.00;;;14.80
19282;BMP180;9774;52.034;5.342;2023-04-21T05:35:18;101254.00;;;14.80
19282;BMP180;9774;52.034;5.342;2023-04-21T05:37:45;101251.00;;;14.80
19282;BMP180;9774;52.034;5.342;2023-04-21T05:40:14;101258.00;;;14.80
19282;BMP180;9774;52.034;5.342;2023-04-21T05:42:41;101266.00;;;14.90
19282;BMP180;9774;52.034;5.342;2023-04-21T05:45:09;101267.00;;;14.90
19282;BMP180;9774;52.034;5.342;2023-04-21T05:47:36;101271.00;;;14.90
19282;BMP180;9774;52.034;5.342;2023-04-21T05:50:05;101280.00;;;15.00
19282;BMP180;9774;52.034;5.342;2023-04-21T05:52:32;101286.00;;;15.00
19282;BMP180;9774;52.034;5.342;2023-04-21T05:55:02;101287.00;;;15.00
19282;BMP180;9774;52.034;5.342;2023-04-21T05:57:31;101282.00;;;15.00
19282;BMP180;9774;52.034;5.342;2023-04-21T05:59:58;101281.00;;;15.10
19282;BMP180;9774;52.034;5.342;2023-04-21T06:02:26;101290.00;;;15.10
19282;BMP180;9774;52.034;5.342;2023-04-21T06:04:53;101284.00;;;15.20
19282;BMP180;9774;52.034;5.342;2023-04-21T06:07:20;101292.00;;;15.20
19282;BMP180;9774;52.034;5.342;2023-04-21T06:09:49;101289.00;;;15.20
19282;BMP180;9774;52.034;5.342;2023-04-21T06:12:17;101289.00;;;15.20
19282;BMP180;9774;52.034;5.342;2023-04-21T06:14:45;101286.00;;;15.20
19282;BMP180;9774;52.034;5.342;2023-04-21T06:17:16;101272.00;;;15.30
19282;BMP180;9774;52.034;5.342;2023-04-21T06:19:43;101275.00;;;15.40
19282;BMP180;9774;52.034;5.342;2023-04-21T06:22:11;101267.00;;;15.40
19282;BMP180;9774;52.034;5.342;2023-04-21T06:24:38;101267.00;;;15.40
19282;BMP180;9774;52.034;5.342;2023-04-21T06:27:09;101270.00;;;15.40
19282;BMP180;9774;52.034;5.342;2023-04-21T06:29:37;101276.00;;;15.50
19282;BMP180;9774;52.034;5.342;2023-04-21T06:32:06;101269.00;;;15.50
19282;BMP180;9774;52.034;5.342;2023-04-21T06:34:34;101269.00;;;15.60
19282;BMP180;9774;52.034;5.342;2023-04-21T06:37:01;101273.00;;;15.60
19282;BMP180;9774;52.034;5.342;2023-04-21T06:39:29;101268.00;;;15.70
19282;BMP180;9774;52.034;5.342;2023-04-21T06:41:56;101269.00;;;15.70
19282;BMP180;9774;52.034;5.342;2023-04-21T06:44:24;101274.00;;;15.80
19282;BMP180;9774;52.034;5.342;2023-04-21T06:46:51;101272.00;;;15.80
19282;BMP180;9774;52.034;5.342;2023-04-21T06:49:20;101263.00;;;15.90
19282;BMP180;9774;52.034;5.342;2023-04-21T06:51:47;101263.00;;;15.90
19282;BMP180;9774;52.034;5.342;2023-04-21T06:54:14;101265.00;;;16.00
19282;BMP180;9774;52.034;5.342;2023-04-21T06:56:41;101269.00;;;16.10
19282;BMP180;9774;52.034;5.342;2023-04-21T06:59:09;101265.00;;;16.10
19282;BMP180;9774;52.034;5.342;2023-04-21T07:01:36;101265.00;;;16.20
19282;BMP180;9774;52.034;5.342;2023-04-21T07:04:04;101265.00;;;16.20
19282;BMP180;9774;52.034;5.342;2023-04-21T07:06:33;101258.00;;;16.30
19282;BMP180;9774;52.034;5.342;2023-04-21T07:09:00;101263.00;;;16.40
19282;BMP180;9774;52.034;5.342;2023-04-21T07:11:27;101270.00;;;16.40
19282;BMP180;9774;52.034;5.342;2023-04-21T07:13:55;101267.00;;;16.50
19282;BMP180;9774;52.034;5.342;2023-04-21T07:16:22;101271.00;;;16.60
19282;BMP180;9774;52.034;5.342;2023-04-21T07:18:50;101271.00;;;16.70
19282;BMP180;9774;52.034;5.342;2023-04-21T07:21:17;101265.00;;;16.80
19282;BMP180;9774;52.034;5.342;2023-04-21T07:23:46;101264.00;;;16.80
19282;BMP180;9774;52.034;5.342;2023-04-21T07:26:13;101261.00;;;17.00
19282;BMP180;9774;52.034;5.342;2023-04-21T07:28:41;101265.00;;;17.10
19282;BMP180;9774;52.034;5.342;2023-04-21T07:31:08;101265.00;;;17.10
19282;BMP180;9774;52.034;5.342;2023-04-21T07:33:35;101273.00;;;17.20
19282;BMP180;9774;52.034;5.342;2023-04-21T07:36:03;101267.00;;;17.30
19282;BMP180;9774;52.034;5.342;2023-04-21T07:38:31;101271.00;;;17.40
19282;BMP180;9774;52.034;5.342;2023-04-21T07:40:59;101272.00;;;17.40
19282;BMP180;9774;52.034;5.342;2023-04-21T07:43:27;101273.00;;;17.50
19282;BMP180;9774;52.034;5.342;2023-04-21T07:45:56;101278.00;;;17.50
19282;BMP180;9774;52.034;5.342;2023-04-21T07:48:23;101281.00;;;17.60
19282;BMP180;9774;52.034;5.342;2023-04-21T07:50:50;101276.00;;;17.70
19282;BMP180;9774;52.034;5.342;2023-04-21T07:53:18;101275.00;;;17.70
19282;BMP180;9774;52.034;5.342;2023-04-21T07:55:45;101280.00;;;17.80
19282;BMP180;9774;52.034;5.342;2023-04-21T07:58:14;101280.00;;;17.90
19282;BMP180;9774;52.034;5.342;2023-04-21T08:00:41;101284.00;;;17.90
19282;BMP180;9774;52.034;5.342;2023-04-21T08:03:09;101275.00;;;18.00
19282;BMP180;9774;52.034;5.342;2023-04-21T08:05:36;101269.00;;;18.10
19282;BMP180;9774;52.034;5.342;2023-04-21T08:08:04;101264.00;;;18.20
19282;BMP180;9774;52.034;5.342;2023-04-21T08:10:32;101262.00;;;18.20
19282;BMP180;9774;52.034;5.342;2023-04-21T08:12:59;101267.00;;;18.40
19282;BMP180;9774;52.034;5.342;2023-04-21T08:15:29;101260.00;;;18.40
19282;BMP180;9774;52.034;5.342;2023-04-21T08:17:56;101264.00;;;18.50
19282;BMP180;9774;52.034;5.342;2023-04-21T08:20:24;101262.00;;;18.60
19282;BMP180;9774;52.034;5.342;2023-04-21T08:22:51;101266.00;;;18.60
19282;BMP180;9774;52.034;5.342;2023-04-21T08:25:19;101271.00;;;18.70
19282;BMP180;9774;52.034;5.342;2023-04-21T08:27:46;101259.00;;;18.80
19282;BMP180;9774;52.034;5.342;2023-04-21T08:30:16;101258.00;;;18.80
19282;BMP180;9774;52.034;5.342;2023-04-21T08:32:45;101268.00;;;18.90
19282;BMP180;9774;52.034;5.342;2023-04-21T08:35:12;101262.00;;;19.00
19282;BMP180;9774;52.034;5.342;2023-04-21T08:37:40;101266.00;;;19.10
19282;BMP180;9774;52.034;5.342;2023-04-21T08:40:08;101261.00;;;19.10
19282;BMP180;9774;52.034;5.342;2023-04-21T08:42:35;101263.00;;;19.20
19282;BMP180;9774;52.034;5.342;2023-04-21T08:45:04;101270.00;;;19.30
19282;BMP180;9774;52.034;5.342;2023-04-21T08:47:32;101269.00;;;19.40
19282;BMP180;9774;52.034;5.342;2023-04-21T08:50:01;101262.00;;;19.50
19282;BMP180;9774;52.034;5.342;2023-04-21T08:52:28;101256.00;;;19.60
19282;BMP180;9774;52.034;5.342;2023-04-21T08:54:57;101251.00;;;19.70
19282;BMP180;9774;52.034;5.342;2023-04-21T08:57:24;101252.00;;;19.80
19282;BMP180;9774;52.034;5.342;2023-04-21T08:59:51;101245.00;;;19.90
19282;BMP180;9774;52.034;5.342;2023-04-21T09:02:19;101254.00;;;20.00
19282;BMP180;9774;52.034;5.342;2023-04-21T09:04:47;101249.00;;;20.10
19282;BMP180;9774;52.034;5.342;2023-04-21T09:07:30;101248.00;;;20.10
19282;BMP180;9774;52.034;5.342;2023-04-21T09:09:58;101263.00;;;20.30
19282;BMP180;9774;52.034;5.342;2023-04-21T09:12:27;101263.00;;;20.40
19282;BMP180;9774;52.034;5.342;2023-04-21T09:14:55;101265.00;;;20.40
19282;BMP180;9774;52.034;5.342;2023-04-21T09:17:29;101272.00;;;20.50
19282;BMP180;9774;52.034;5.342;2023-04-21T09:19:57;101256.00;;;20.50
19282;BMP180;9774;52.034;5.342;2023-04-21T09:22:39;101252.00;;;20.50
19282;BMP180;9774;52.034;5.342;2023-04-21T09:25:06;101258.00;;;20.50
19282;BMP180;9774;52.034;5.342;2023-04-21T09:27:35;101251.00;;;20.50
19282;BMP180;9774;52.034;5.342;2023-04-21T09:30:04;101249.00;;;20.60
19282;BMP180;9774;52.034;5.342;2023-04-21T09:32:36;101252.00;;;20.60
19282;BMP180;9774;52.034;5.342;2023-04-21T09:35:04;101267.00;;;20.70
19282;BMP180;9774;52.034;5.342;2023-04-21T09:37:32;101261.00;;;20.70
19282;BMP180;9774;52.034;5.342;2023-04-21T09:40:01;101258.00;;;20.70
19282;BMP180;9774;52.034;5.342;2023-04-21T09:42:30;101264.00;;;20.80
19282;BMP180;9774;52.034;5.342;2023-04-21T09:44:57;101258.00;;;20.90
19282;BMP180;9774;52.034;5.342;2023-04-21T09:47:28;101248.00;;;20.90
19282;BMP180;9774;52.034;5.342;2023-04-21T09:49:55;101243.00;;;21.00
19282;BMP180;9774;52.034;5.342;2023-04-21T09:52:25;101248.00;;;21.00
19282;BMP180;9774;52.034;5.342;2023-04-21T09:54:59;101240.00;;;20.90
19282;BMP180;9774;52.034;5.342;2023-04-21T09:57:31;101240.00;;;21.00
19282;BMP180;9774;52.034;5.342;2023-04-21T10:00:00;101236.00;;;21.00
19282;BMP180;9774;52.034;5.342;2023-04-21T10:02:30;101244.00;;;21.00
19282;BMP180;9774;52.034;5.342;2023-04-21T10:04:58;101242.00;;;21.10
19282;BMP180;9774;52.034;5.342;2023-04-21T10:07:25;101245.00;;;21.10
19282;BMP180;9774;52.034;5.342;2023-04-21T10:09:54;101249.00;;;21.10
19282;BMP180;9774;52.034;5.342;2023-04-21T10:12:23;101237.00;;;21.10
19282;BMP180;9774;52.034;5.342;2023-04-21T10:14:52;101243.00;;;21.20
19282;BMP180;9774;52.034;5.342;2023-04-21T10:17:22;101246.00;;;21.20
19282;BMP180;9774;52.034;5.342;2023-04-21T10:19:51;101243.00;;;21.20
19282;BMP180;9774;52.034;5.342;2023-04-21T10:22:29;101235.00;;;21.20
19282;BMP180;9774;52.034;5.342;2023-04-21T10:24:58;101235.00;;;21.20
19282;BMP180;9774;52.034;5.342;2023-04-21T10:27:33;101236.00;;;21.20
19282;BMP180;9774;52.034;5.342;2023-04-21T10:30:17;101232.00;;;21.10
19282;BMP180;9774;52.034;5.342;2023-04-21T10:32:45;101237.00;;;21.20
19282;BMP180;9774;52.034;5.342;2023-04-21T10:35:14;101234.00;;;21.20
19282;BMP180;9774;52.034;5.342;2023-04-21T10:37:42;101238.00;;;21.20
19282;BMP180;9774;52.034;5.342;2023-04-21T10:40:32;101220.00;;;21.10
19282;BMP180;9774;52.034;5.342;2023-04-21T10:43:02;101220.00;;;21.20
19282;BMP180;9774;52.034;5.342;2023-04-21T10:45:31;101219.00;;;21.10
19282;BMP180;9774;52.034;5.342;2023-04-21T10:47:59;101213.00;;;21.20
19282;BMP180;9774;52.034;5.342;2023-04-21T10:50:30;101212.00;;;21.20
19282;BMP180;9774;52.034;5.342;2023-04-21T10:53:06;101206.00;;;21.30
19282;BMP180;9774;52.034;5.342;2023-04-21T10:55:35;101214.00;;;21.40
19282;BMP180;9774;52.034;5.342;2023-04-21T10:58:04;101206.00;;;21.50
19282;BMP180;9774;52.034;5.342;2023-04-21T11:00:36;101202.00;;;21.70
19282;BMP180;9774;52.034;5.342;2023-04-21T11:03:05;101195.00;;;21.80
19282;BMP180;9774;52.034;5.342;2023-04-21T11:05:35;101193.00;;;21.80
19282;BMP180;9774;52.034;5.342;2023-04-21T11:08:08;101195.00;;;21.90
19282;BMP180;9774;52.034;5.342;2023-04-21T11:10:49;101193.00;;;21.80
19282;BMP180;9774;52.034;5.342;2023-04-21T11:13:16;101185.00;;;21.90
19282;BMP180;9774;52.034;5.342;2023-04-21T11:15:58;101185.00;;;21.90
19282;BMP180;9774;52.034;5.342;2023-04-21T11:18:35;101188.00;;;21.90
19282;BMP180;9774;52.034;5.342;2023-04-21T11:21:13;101181.00;;;22.00
19282;BMP180;9774;52.034;5.342;2023-04-21T11:23:51;101188.00;;;22.00
19282;BMP180;9774;52.034;5.342;2023-04-21T11:26:28;101181.00;;;22.10
19282;BMP180;9774;52.034;5.342;2023-04-21T11:28:55;101172.00;;;22.10
19282;BMP180;9774;52.034;5.342;2023-04-21T11:31:29;101165.00;;;22.00
19282;BMP180;9774;52.034;5.342;2023-04-21T11:33:57;101162.00;;;22.10
19282;BMP180;9774;52.034;5.342;2023-04-21T11:36:25;101166.00;;;22.10
19282;BMP180;9774;52.034;5.342;2023-04-21T11:38:54;101164.00;;;22.20
19282;BMP180;9774;52.034;5.342;2023-04-21T11:41:22;101158.00;;;22.30
19282;BMP180;9774;52.034;5.342;2023-04-21T11:43:50;101160.00;;;22.50
19282;BMP180;9774;52.034;5.342;2023-04-21T11:46:21;101152.00;;;22.50
19282;BMP180;9774;52.034;5.342;2023-04-21T11:48:59;101146.00;;;22.50
19282;BMP180;9774;52.034;5.342;2023-04-21T11:51:31;101150.00;;;22.70
19282;BMP180;9774;52.034;5.342;2023-04-21T11:53:58;101137.00;;;22.70
19282;BMP180;9774;52.034;5.342;2023-04-21T11:56:26;101132.00;;;22.80
19282;BMP180;9774;52.034;5.342;2023-04-21T11:58:53;101125.00;;;22.80
19282;BMP180;9774;52.034;5.342;2023-04-21T12:01:21;101126.00;;;22.90
19282;BMP180;9774;52.034;5.342;2023-04-21T12:03:52;101132.00;;;23.00
19282;BMP180;9774;52.034;5.342;2023-04-21T12:06:22;101128.00;;;23.00
19282;BMP180;9774;52.034;5.342;2023-04-21T12:08:55;101123.00;;;23.10
19282;BMP180;9774;52.034;5.342;2023-04-21T12:11:23;101127.00;;;23.10
19282;BMP180;9774;52.034;5.342;2023-04-21T12:13:51;101130.00;;;23.20
19282;BMP180;9774;52.034;5.342;2023-04-21T12:16:18;101131.00;;;23.20
19282;BMP180;9774;52.034;5.342;2023-04-21T12:18:47;101119.00;;;23.10
19282;BMP180;9774;52.034;5.342;2023-04-21T12:21:15;101114.00;;;23.20
19282;BMP180;9774;52.034;5.342;2023-04-21T12:23:43;101117.00;;;23.10
19282;BMP180;9774;52.034;5.342;2023-04-21T12:26:11;101121.00;;;23.20
19282;BMP180;9774;52.034;5.342;2023-04-21T12:28:39;101108.00;;;23.20
19282;BMP180;9774;52.034;5.342;2023-04-21T12:31:06;101115.00;;;23.20
19282;BMP180;9774;52.034;5.342;2023-04-21T12:33:33;101108.00;;;23.20
19282;BMP180;9774;52.034;5.342;2023-04-21T12:36:01;101096.00;;;23.20
19282;BMP180;9774;52.034;5.342;2023-04-21T12:38:28;101101.00;;;23.20
19282;BMP180;9774;52.034;5.342;2023-04-21T12:40:57;101086.00;;;23.30
19282;BMP180;9774;52.034;5.342;2023-04-21T12:43:24;101081.00;;;23.30
19282;BMP180;9774;52.034;5.342;2023-04-21T12:45:51;101082.00;;;23.40
19282;BMP180;9774;52.034;5.342;2023-04-21T12:48:19;101086.00;;;23.40
19282;BMP180;9774;52.034;5.342;2023-04-21T12:50:46;101093.00;;;23.50
19282;BMP180;9774;52.034;5.342;2023-04-21T12:53:14;101081.00;;;23.50
19282;BMP180;9774;52.034;5.342;2023-04-21T12:55:41;101085.00;;;23.40
19282;BMP180;9774;52.034;5.342;2023-04-21T12:58:10;101091.00;;;23.30
19282;BMP180;9774;52.034;5.342;2023-04-21T13:00:37;101093.00;;;23.20
19282;BMP180;9774;52.034;5.342;2023-04-21T13:03:06;101084.00;;;23.20
19282;BMP180;9774;52.034;5.342;2023-04-21T13:05:33;101075.00;;;23.10
19282;BMP180;9774;52.034;5.342;2023-04-21T13:08:01;101064.00;;;23.10
19282;BMP180;9774;52.034;5.342;2023-04-21T13:10:28;101071.00;;;23.10
19282;BMP180;9774;52.034;5.342;2023-04-21T13:12:55;101071.00;;;23.20
19282;BMP180;9774;52.034;5.342;2023-04-21T13:15:24;101069.00;;;23.20
19282;BMP180;9774;52.034;5.342;2023-04-21T13:17:51;101062.00;;;23.30
19282;BMP180;9774;52.034;5.342;2023-04-21T13:20:19;101061.00;;;23.30
19282;BMP180;9774;52.034;5.342;2023-04-21T13:22:47;101047.00;;;23.40
19282;BMP180;9774;52.034;5.342;2023-04-21T13:25:14;101042.00;;;23.50
19282;BMP180;9774;52.034;5.342;2023-04-21T13:27:42;101038.00;;;23.50
19282;BMP180;9774;52.034;5.342;2023-04-21T13:30:12;101049.00;;;23.50
19282;BMP180;9774;52.034;5.342;2023-04-21T13:32:41;101036.00;;;23.40
19282;BMP180;9774;52.034;5.342;2023-04-21T13:35:09;101028.00;;;23.40
19282;BMP180;9774;52.034;5.342;2023-04-21T13:37:36;101029.00;;;23.50
19282;BMP180;9774;52.034;5.342;2023-04-21T13:40:07;101019.00;;;23.60
19282;BMP180;9774;52.034;5.342;2023-04-21T13:42:36;101016.00;;;23.90
19282;BMP180;9774;52.034;5.342;2023-04-21T13:45:04;101022.00;;;24.00
19282;BMP180;9774;52.034;5.342;2023-04-21T13:47:33;101015.00;;;24.10
19282;BMP180;9774;52.034;5.342;2023-04-21T13:50:02;101015.00;;;24.10
19282;BMP180;9774;52.034;5.342;2023-04-21T13:52:30;101001.00;;;24.00
19282;BMP180;9774;52.034;5.342;2023-04-21T13:54:59;101005.00;;;24.00
19282;BMP180;9774;52.034;5.342;2023-04-21T13:57:26;100998.00;;;24.30
19282;BMP180;9774;52.034;5.342;2023-04-21T13:59:53;101000.00;;;24.90
19282;BMP180;9774;52.034;5.342;2023-04-21T14:02:21;101002.00;;;25.30
19282;BMP180;9774;52.034;5.342;2023-04-21T14:04:50;100987.00;;;25.50
19282;BMP180;9774;52.034;5.342;2023-04-21T14:07:20;100992.00;;;25.60
19282;BMP180;9774;52.034;5.342;2023-04-21T14:09:48;100988.00;;;25.80
19282;BMP180;9774;52.034;5.342;2023-04-21T14:12:16;100978.00;;;26.00
19282;BMP180;9774;52.034;5.342;2023-04-21T14:14:44;100971.00;;;26.10